Time;durP1;ratioP1;P1;durP2;ratioP2;P2;SDS_P1;SDS_P2;PMS_P1;PMS_P2;Temp;Humidity;BMP_temperature;BMP_pressure;BME280_temperature;BME280_humidity;BME280_pressure;Samples;Min_cycle;Max_cycle;Signal;HPM_P1;HPM_P2
2021/12/30 00:00:05;;;;;;;0.20;0.20;;;;;;;18.67;43.17;100715.59;5146342;27;20473;-34
2021/12/30 00:02:31;;;;;;;0.20;0.20;;;;;;;18.66;43.44;100719.47;5148053;27;20466;-35
2021/12/30 00:04:58;;;;;;;0.20;0.20;;;;;;;18.66;43.55;100728.56;5143071;27;20050;-34
2021/12/30 00:07:24;;;;;;;0.20;0.20;;;;;;;18.67;43.54;100732.16;5133756;27;20126;-34
2021/12/30 00:09:50;;;;;;;0.20;0.20;;;;;;;18.66;43.58;100727.75;5144358;27;20039;-34
2021/12/30 00:12:16;;;;;;;0.20;0.20;;;;;;;18.66;43.63;100736.84;5148875;27;20092;-34
2021/12/30 00:14:41;;;;;;;0.20;0.20;;;;;;;18.66;43.39;100736.84;5132056;27;20039;-34
2021/12/30 00:17:07;;;;;;;0.20;0.20;;;;;;;18.66;43.26;100742.38;5132780;27;20366;-34
2021/12/30 00:19:33;;;;;;;0.20;0.20;;;;;;;18.66;43.29;100739.59;5113195;28;20055;-34
2021/12/30 00:21:59;;;;;;;0.30;0.30;;;;;;;18.66;43.43;100750.63;5118103;27;20426;-34
2021/12/30 00:24:25;;;;;;;0.30;0.30;;;;;;;18.67;43.34;100754.22;5130519;27;20138;-34
2021/12/30 00:26:51;;;;;;;0.20;0.20;;;;;;;18.67;42.93;100757.81;5133180;27;20715;-34
2021/12/30 00:29:17;;;;;;;0.30;0.30;;;;;;;18.67;43.63;100768.00;5132341;27;20047;-35
2021/12/30 00:31:43;;;;;;;0.30;0.30;;;;;;;18.66;43.51;100767.19;5133794;27;20047;-34
2021/12/30 00:34:09;;;;;;;0.20;0.20;;;;;;;18.66;43.34;100767.19;5129899;27;20058;-34
2021/12/30 00:36:35;;;;;;;0.20;0.20;;;;;;;18.67;43.21;100768.84;5112893;28;20051;-34
2021/12/30 00:39:01;;;;;;;0.20;0.20;;;;;;;18.67;43.45;100771.59;5129965;28;20088;-34
2021/12/30 00:41:26;;;;;;;0.30;0.30;;;;;;;18.67;43.34;100773.53;5114504;28;20545;-34
2021/12/30 00:43:52;;;;;;;0.30;0.30;;;;;;;18.68;43.54;100789.78;5130447;27;20051;-34
2021/12/30 00:46:18;;;;;;;0.20;0.20;;;;;;;18.67;43.41;100788.13;5131565;27;20043;-34
2021/12/30 00:48:43;;;;;;;0.30;0.30;;;;;;;18.67;43.36;100782.63;5130297;27;20047;-34
2021/12/30 00:51:09;;;;;;;0.30;0.30;;;;;;;18.67;43.43;100785.38;5132313;27;20092;-34
2021/12/30 00:53:35;;;;;;;0.30;0.30;;;;;;;18.66;43.46;100789.25;5111227;28;20039;-34
2021/12/30 00:56:01;;;;;;;0.30;0.30;;;;;;;18.67;43.48;100796.41;5112993;28;20043;-34
2021/12/30 00:58:27;;;;;;;0.30;0.30;;;;;;;18.66;43.54;100792.00;5134259;27;20054;-36
2021/12/30 01:00:54;;;;;;;0.30;0.30;;;;;;;18.67;43.46;100801.09;5107854;27;20466;-34
2021/12/30 01:03:20;;;;;;;0.30;0.30;;;;;;;18.67;43.63;100796.41;5128479;27;20409;-34
2021/12/30 01:05:46;;;;;;;0.20;0.20;;;;;;;18.68;43.58;100791.72;5129166;28;20039;-34
2021/12/30 01:08:13;;;;;;;0.20;0.20;;;;;;;18.68;43.51;100791.72;5131987;27;20088;-34
2021/12/30 01:10:40;;;;;;;0.20;0.20;;;;;;;18.68;43.53;100789.78;5131925;27;20043;-34
2021/12/30 01:13:10;;;;;;;0.20;0.20;;;;;;;18.67;43.43;100785.38;5130560;27;20057;-34
2021/12/30 01:16:16;;;;;;;0.25;0.25;;;;;;;18.67;43.67;100792.84;5115422;28;20039;-34
2021/12/30 01:18:34;;;;;;;0.20;0.20;;;;;;;18.68;43.52;100794.47;5113598;28;20043;-34
2021/12/30 01:21:00;;;;;;;0.20;0.20;;;;;;;18.68;43.47;100800.00;5130292;27;20090;-34
2021/12/30 01:23:27;;;;;;;0.30;0.30;;;;;;;18.68;43.52;100802.75;5101009;28;20105;-34
2021/12/30 01:25:53;;;;;;;0.20;0.20;;;;;;;18.68;43.47;100800.00;5132868;27;20035;-35
2021/12/30 01:28:19;;;;;;;0.30;0.30;;;;;;;18.69;43.38;100809.91;5129899;27;20389;-34
2021/12/30 01:30:46;;;;;;;0.20;0.20;;;;;;;18.68;43.46;100802.75;5133524;27;20050;-35
2021/12/30 01:33:11;;;;;;;0.30;0.30;;;;;;;18.68;43.55;100813.78;5129716;27;20542;-34
2021/12/30 01:35:37;;;;;;;0.25;0.25;;;;;;;18.69;43.42;100826.47;5131160;27;20047;-34
2021/12/30 01:38:03;;;;;;;0.20;0.20;;;;;;;18.68;43.39;100824.81;5131689;27;20526;-36
2021/12/30 01:40:30;;;;;;;0.20;0.20;;;;;;;18.67;43.60;100826.75;5133466;27;20046;-34
2021/12/30 01:42:57;;;;;;;0.20;0.20;;;;;;;18.67;43.54;100832.28;5112672;28;20550;-34
2021/12/30 01:45:23;;;;;;;0.20;0.20;;;;;;;18.67;43.71;100824.00;5114377;27;20035;-36
2021/12/30 01:47:52;;;;;;;0.20;0.20;;;;;;;18.69;43.53;100826.47;5129344;27;20405;-35
2021/12/30 01:50:18;;;;;;;0.30;0.30;;;;;;;18.68;43.63;100831.16;5129839;27;20043;-34
2021/12/30 01:52:44;;;;;;;0.20;0.20;;;;;;;18.68;43.72;100833.91;5114080;27;20039;-36
2021/12/30 01:55:11;;;;;;;0.28;0.28;;;;;;;18.68;43.48;100824.81;5109783;28;20051;-35
2021/12/30 01:57:37;;;;;;;0.20;0.20;;;;;;;18.69;43.72;100829.22;5132732;27;20043;-34
2021/12/30 02:00:07;;;;;;;0.20;0.20;;;;;;;18.69;43.27;100816.28;5128771;27;20427;-34
2021/12/30 02:02:33;;;;;;;0.20;0.20;;;;;;;18.68;43.66;100822.88;5110615;27;20046;-34
2021/12/30 02:04:58;;;;;;;0.20;0.20;;;;;;;18.67;43.67;100824.00;5127045;27;20094;-34
2021/12/30 02:07:24;;;;;;;0.20;0.20;;;;;;;18.69;43.63;100820.94;5130032;27;20047;-34
2021/12/30 02:09:50;;;;;;;0.20;0.20;;;;;;;18.68;43.50;100822.88;5128663;27;20039;-35
2021/12/30 02:12:16;;;;;;;0.20;0.20;;;;;;;18.69;43.62;100823.72;5129495;28;20057;-34
2021/12/30 02:14:42;;;;;;;0.20;0.20;;;;;;;18.69;43.85;100809.91;5128051;28;20045;-35
2021/12/30 02:17:08;;;;;;;0.20;0.20;;;;;;;18.69;43.53;100816.28;5138457;27;20039;-34
2021/12/30 02:19:34;;;;;;;0.20;0.20;;;;;;;18.69;43.38;100818.19;5132373;27;20131;-38
2021/12/30 02:22:00;;;;;;;0.20;0.20;;;;;;;18.68;43.73;100814.63;5109709;28;20066;-34
2021/12/30 02:24:25;;;;;;;0.30;0.30;;;;;;;18.68;43.54;100813.78;5108011;28;20291;-34
2021/12/30 02:26:52;;;;;;;0.20;0.20;;;;;;;18.68;43.51;100806.34;5129058;27;20058;-35
2021/12/30 02:29:18;;;;;;;0.20;0.20;;;;;;;18.70;43.61;100803.34;5130468;27;20241;-35
2021/12/30 02:31:44;;;;;;;0.20;0.20;;;;;;;18.69;43.52;100801.66;5130500;27;20130;-35
2021/12/30 02:34:10;;;;;;;0.30;0.30;;;;;;;18.70;43.61;100800.59;5130106;27;20058;-34
2021/12/30 02:36:37;;;;;;;0.30;0.30;;;;;;;18.68;43.51;100811.84;5129525;27;20096;-35
2021/12/30 02:39:06;;;;;;;0.30;0.30;;;;;;;18.69;43.62;100808.00;5095792;27;20392;-35
2021/12/30 02:41:34;;;;;;;0.20;0.20;;;;;;;18.69;43.63;100807.16;5129365;27;20492;-34
2021/12/30 02:44:02;;;;;;;0.20;0.20;;;;;;;18.70;43.58;100819.91;5110304;28;20068;-35
2021/12/30 02:46:29;;;;;;;0.20;0.20;;;;;;;18.70;43.62;100817.13;5130193;27;20134;-34
2021/12/30 02:48:56;;;;;;;0.20;0.20;;;;;;;18.69;43.64;100821.81;5128757;27;20050;-35
2021/12/30 02:51:22;;;;;;;0.20;0.20;;;;;;;18.69;43.67;100830.09;5110038;28;20391;-34
2021/12/30 02:53:49;;;;;;;0.20;0.20;;;;;;;18.69;43.80;100816.28;5092547;28;20049;-36
2021/12/30 02:56:15;;;;;;;0.20;0.20;;;;;;;18.69;43.59;100815.44;5114360;27;20174;-34
2021/12/30 02:58:40;;;;;;;0.30;0.30;;;;;;;18.69;43.49;100819.03;5129158;27;20035;-34
2021/12/30 03:01:17;;;;;;;0.20;0.20;;;;;;;18.70;43.76;100820.72;5127202;27;20466;-34
2021/12/30 03:03:43;;;;;;;0.20;0.20;;;;;;;18.70;43.55;100828.19;5095113;27;20047;-36
2021/12/30 03:06:11;;;;;;;0.20;0.20;;;;;;;18.69;43.72;100823.72;5128621;27;20043;-34
2021/12/30 03:08:37;;;;;;;0.20;0.20;;;;;;;18.69;43.45;100830.09;5127918;27;20043;-35
2021/12/30 03:11:04;;;;;;;0.20;0.20;;;;;;;18.68;43.73;100828.41;5132589;27;20047;-37
2021/12/30 03:13:31;;;;;;;0.20;0.20;;;;;;;18.71;43.70;100846.38;5083697;28;20043;-35
2021/12/30 03:16:06;;;;;;;0.20;0.20;;;;;;;18.69;43.57;100841.13;5114976;27;20070;-34
2021/12/30 03:18:35;;;;;;;0.30;0.30;;;;;;;18.70;43.60;100845.56;5118429;27;20069;-34
2021/12/30 03:21:01;;;;;;;;;;;;;;;18.70;43.57;100847.47;5110702;27;20434;-34
2021/12/30 03:23:27;;;;;;;0.20;0.20;;;;;;;18.68;43.76;100852.41;5125892;27;20512;-34
2021/12/30 03:25:52;;;;;;;0.28;0.28;;;;;;;18.69;43.75;100852.16;5132783;27;20035;-34
2021/12/30 03:28:18;;;;;;;0.30;0.30;;;;;;;18.69;43.75;100840.25;5131316;27;20096;-34
2021/12/30 03:30:44;;;;;;;0.30;0.30;;;;;;;18.69;43.56;100841.13;5094544;27;20047;-35
2021/12/30 03:33:10;;;;;;;0.20;0.20;;;;;;;18.70;43.52;100837.28;5128695;27;20059;-34
2021/12/30 03:35:36;;;;;;;0.30;0.30;;;;;;;18.71;43.51;100838.09;5110271;27;20046;-34
2021/12/30 03:38:02;;;;;;;0.30;0.30;;;;;;;18.71;43.54;100843.63;5110192;27;20043;-34
2021/12/30 03:40:28;;;;;;;0.30;0.30;;;;;;;18.71;43.73;100846.38;5111332;27;20035;-34
2021/12/30 03:42:54;;;;;;;0.30;0.30;;;;;;;18.70;43.64;100844.72;5126876;27;20043;-34
2021/12/30 03:45:20;;;;;;;0.30;0.30;;;;;;;18.71;43.69;100852.72;5127922;28;20091;-34
2021/12/30 03:47:48;;;;;;;0.30;0.30;;;;;;;18.71;43.61;100843.63;5129247;27;20044;-35
2021/12/30 03:50:20;;;;;;;0.20;0.20;;;;;;;18.70;43.48;100833.69;5131714;27;20041;-35
2021/12/30 03:52:49;;;;;;;0.20;0.20;;;;;;;18.70;43.88;100840.03;5099466;27;20404;-35
2021/12/30 03:55:16;;;;;;;0.20;0.20;;;;;;;18.70;43.62;100848.31;5130736;27;20106;-34
2021/12/30 03:57:42;;;;;;;0.20;0.20;;;;;;;18.71;43.79;100852.72;5131036;27;20537;-34
2021/12/30 04:00:09;;;;;;;0.20;0.20;;;;;;;18.71;43.78;100857.41;5130586;27;20190;-34
2021/12/30 04:02:35;;;;;;;0.22;0.22;;;;;;;18.71;43.65;100851.88;5130586;27;20053;-34
2021/12/30 04:05:00;;;;;;;0.30;0.30;;;;;;;18.71;43.60;100846.38;5128011;27;20043;-35
2021/12/30 04:07:26;;;;;;;0.20;0.20;;;;;;;18.70;43.74;100859.34;5133358;27;20396;-34
2021/12/30 04:09:52;;;;;;;0.20;0.20;;;;;;;18.72;43.73;100853.53;5131589;27;20039;-34
2021/12/30 04:12:18;;;;;;;0.20;0.20;;;;;;;18.71;43.71;100851.88;5131175;27;20053;-34
2021/12/30 04:14:44;;;;;;;0.20;0.20;;;;;;;18.71;43.83;100858.22;5111665;27;20483;-34
2021/12/30 04:17:10;;;;;;;0.20;0.20;;;;;;;18.72;43.60;100853.53;5133910;27;20039;-34
2021/12/30 04:19:35;;;;;;;0.30;0.30;;;;;;;18.72;43.60;100848.03;5132509;27;20487;-34
2021/12/30 04:22:01;;;;;;;0.20;0.20;;;;;;;18.72;43.63;100843.31;5137777;27;20043;-34
2021/12/30 04:24:27;;;;;;;0.20;0.20;;;;;;;18.71;43.74;100846.38;5110630;28;20039;-34
2021/12/30 04:26:52;;;;;;;0.30;0.30;;;;;;;18.71;43.69;100847.19;5132029;27;20058;-33
2021/12/30 04:29:18;;;;;;;0.20;0.20;;;;;;;18.72;43.65;100842.50;5131826;27;20277;-34
2021/12/30 04:31:45;;;;;;;0.20;0.20;;;;;;;18.71;43.79;100849.13;5131391;27;20165;-34
2021/12/30 04:34:11;;;;;;;0.22;0.22;;;;;;;18.73;43.84;100855.19;5130368;27;20051;-34
2021/12/30 04:36:37;;;;;;;0.20;0.20;;;;;;;18.71;44.00;100851.88;5135455;27;20607;-34
2021/12/30 04:39:03;;;;;;;0.20;0.20;;;;;;;18.71;43.80;100849.94;5115203;28;20039;-34
2021/12/30 04:41:29;;;;;;;0.20;0.20;;;;;;;18.71;43.77;100855.47;5132336;27;20523;-34
2021/12/30 04:43:55;;;;;;;0.20;0.20;;;;;;;18.71;43.56;100849.13;5129205;27;20216;-34
2021/12/30 04:46:21;;;;;;;0.20;0.20;;;;;;;18.72;43.74;100848.84;5131353;27;20057;-34
2021/12/30 04:48:47;;;;;;;0.20;0.20;;;;;;;18.73;43.76;100849.66;5130252;28;20074;-36
2021/12/30 04:51:13;;;;;;;0.20;0.20;;;;;;;18.72;43.71;100854.34;5131971;27;20043;-34
2021/12/30 04:53:39;;;;;;;0.20;0.20;;;;;;;18.73;43.78;100849.66;5129129;27;20050;-34
2021/12/30 04:56:05;;;;;;;0.20;0.20;;;;;;;18.72;43.86;100846.09;5115535;27;21577;-34
2021/12/30 04:58:30;;;;;;;0.20;0.20;;;;;;;18.72;43.79;100846.09;5113019;28;20074;-35
2021/12/30 05:00:56;;;;;;;0.20;0.20;;;;;;;18.72;43.73;100854.34;5133261;27;20093;-35
2021/12/30 05:03:25;;;;;;;0.20;0.20;;;;;;;18.72;43.65;100856.28;5128298;27;20150;-34
2021/12/30 05:05:52;;;;;;;0.20;0.20;;;;;;;18.72;43.70;100868.16;5091998;28;20545;-34
2021/12/30 05:08:20;;;;;;;0.20;0.20;;;;;;;18.73;43.87;100872.56;5113424;27;20050;-34
2021/12/30 05:10:46;;;;;;;0.20;0.20;;;;;;;18.73;43.59;100864.28;5130282;27;20047;-36
2021/12/30 05:13:13;;;;;;;0.30;0.30;;;;;;;18.73;43.73;100868.97;5129229;27;20047;-34
2021/12/30 05:15:39;;;;;;;0.20;0.20;;;;;;;18.73;43.73;100863.47;5134475;27;20046;-34
2021/12/30 05:18:07;;;;;;;0.20;0.20;;;;;;;18.73;43.80;100868.97;5113499;28;20073;-34
2021/12/30 05:20:33;;;;;;;0.20;0.20;;;;;;;18.72;43.85;100868.16;5131006;27;20042;-34
2021/12/30 05:22:59;;;;;;;0.20;0.20;;;;;;;18.73;43.75;100868.97;5116507;27;20051;-34
2021/12/30 05:25:25;;;;;;;0.20;0.20;;;;;;;18.73;43.62;100869.78;5131459;27;20061;-34
2021/12/30 05:27:51;;;;;;;0.20;0.20;;;;;;;18.73;43.85;100875.31;5132070;27;20665;-34
2021/12/30 05:30:17;;;;;;;0.20;0.20;;;;;;;18.73;43.86;100863.47;5117075;27;20042;-34
2021/12/30 05:32:43;;;;;;;0.20;0.20;;;;;;;18.73;43.78;100868.97;5130207;27;20134;-34
2021/12/30 05:35:11;;;;;;;0.20;0.20;;;;;;;18.74;43.87;100870.66;5128351;27;20127;-34
2021/12/30 05:37:37;;;;;;;0.20;0.20;;;;;;;18.73;43.79;100869.78;5112924;28;20388;-34
2021/12/30 05:40:05;;;;;;;0.20;0.20;;;;;;;18.72;43.81;100879.19;5130259;27;20039;-34
2021/12/30 05:42:31;;;;;;;;;;;;;;;18.73;43.81;100882.78;5117121;28;20044;-34
2021/12/30 05:44:57;;;;;;;0.30;0.30;;;;;;;18.72;43.99;100881.13;5129019;27;19969;-34
2021/12/30 05:47:22;;;;;;;0.20;0.20;;;;;;;18.72;43.96;100884.69;5111417;28;20074;-34
2021/12/30 05:49:48;;;;;;;0.20;0.20;;;;;;;18.73;43.70;100875.31;5111096;27;20042;-34
2021/12/30 05:52:14;;;;;;;0.30;0.30;;;;;;;18.73;43.92;100882.78;5116149;28;20062;-34
2021/12/30 05:54:41;;;;;;;0.20;0.20;;;;;;;18.73;43.81;100882.78;5126824;27;20049;-34
2021/12/30 05:57:07;;;;;;;0.20;0.20;;;;;;;18.74;43.77;100888.03;5130336;27;20072;-34
2021/12/30 05:59:33;;;;;;;0.20;0.20;;;;;;;18.73;43.89;100891.03;5130401;27;20072;-34
2021/12/30 06:01:58;;;;;;;0.20;0.20;;;;;;;18.72;43.85;100895.75;5131105;27;20678;-34
2021/12/30 06:04:25;;;;;;;0.20;0.20;;;;;;;18.73;44.05;100897.38;5115079;28;20069;-34
2021/12/30 06:06:51;;;;;;;0.20;0.20;;;;;;;18.73;43.79;100902.09;5130252;27;20131;-35
2021/12/30 06:09:17;;;;;;;0.20;0.20;;;;;;;18.74;43.80;100898.25;5112218;27;20043;-34
2021/12/30 06:11:42;;;;;;;0.20;0.20;;;;;;;18.73;43.67;100896.56;5131501;27;20457;-34
2021/12/30 06:14:08;;;;;;;0.25;0.25;;;;;;;18.73;43.90;100904.84;5128548;27;20505;-34
2021/12/30 06:16:34;;;;;;;0.28;0.28;;;;;;;18.73;43.80;100911.19;5132961;27;20035;-34
2021/12/30 06:19:02;;;;;;;0.20;0.20;;;;;;;18.75;43.79;100919.19;5109817;28;20039;-34
2021/12/30 06:21:28;;;;;;;0.20;0.20;;;;;;;18.73;43.75;100921.38;5128415;27;20049;-34
2021/12/30 06:23:53;;;;;;;0.20;0.20;;;;;;;18.74;43.87;100920.31;5126959;27;20036;-34
2021/12/30 06:26:19;;;;;;;0.20;0.20;;;;;;;18.74;43.87;100917.56;5132970;27;20167;-34
2021/12/30 06:28:45;;;;;;;0.20;0.20;;;;;;;18.73;43.81;100916.69;5134618;27;20400;-34
2021/12/30 06:31:10;;;;;;;0.20;0.20;;;;;;;18.74;43.95;100920.31;5129232;27;20047;-34
2021/12/30 06:33:39;;;;;;;0.20;0.20;;;;;;;18.73;43.69;100924.97;5126400;27;20350;-34
2021/12/30 06:36:05;;;;;;;0.20;0.20;;;;;;;18.73;43.94;100921.38;5132529;27;20050;-34
2021/12/30 06:38:32;;;;;;;0.20;0.20;;;;;;;18.73;43.99;100929.66;5132788;27;20523;-34
2021/12/30 06:40:58;;;;;;;0.20;0.20;;;;;;;18.73;43.75;100926.91;5129524;27;20049;-34
2021/12/30 06:43:24;;;;;;;0.20;0.20;;;;;;;18.73;43.80;100924.97;5128552;27;20295;-34
2021/12/30 06:45:49;;;;;;;0.20;0.20;;;;;;;18.74;44.03;100932.16;5127956;28;20053;-34
2021/12/30 06:48:15;;;;;;;0.20;0.20;;;;;;;18.74;43.94;100925.81;5130147;27;20062;-34
2021/12/30 06:50:51;;;;;;;0.20;0.20;;;;;;;18.73;43.86;100930.50;5132026;27;20436;-34
2021/12/30 06:53:17;;;;;;;0.20;0.20;;;;;;;18.74;44.01;100929.41;5125723;27;20411;-34
2021/12/30 06:55:45;;;;;;;0.20;0.20;;;;;;;18.74;43.98;100932.16;5123743;27;20054;-33
2021/12/30 06:58:11;;;;;;;0.20;0.20;;;;;;;18.74;43.90;100928.59;5112052;27;20047;-34
2021/12/30 07:00:36;;;;;;;0.20;0.20;;;;;;;18.73;43.84;100926.91;5128453;27;20085;-34
2021/12/30 07:03:03;;;;;;;0.20;0.20;;;;;;;18.74;43.87;100926.66;5110477;27;20047;-34
2021/12/30 07:05:28;;;;;;;0.20;0.20;;;;;;;18.75;43.77;100939.34;5126856;27;20101;-34
2021/12/30 07:07:54;;;;;;;0.20;0.20;;;;;;;18.73;43.97;100938.75;5130453;27;20062;-34
2021/12/30 07:10:20;;;;;;;0.20;0.20;;;;;;;18.74;43.85;100934.94;5130385;27;20047;-34
2021/12/30 07:12:45;;;;;;;0.20;0.20;;;;;;;18.75;44.01;100942.09;5127930;27;20051;-38
2021/12/30 07:15:11;;;;;;;0.20;0.20;;;;;;;18.74;43.78;100945.13;5129404;27;20050;-35
2021/12/30 07:17:37;;;;;;;0.20;0.20;;;;;;;18.74;43.92;100948.72;5114891;28;20254;-36
2021/12/30 07:20:04;;;;;;;0.20;0.20;;;;;;;18.75;43.93;100950.38;5109948;28;20043;-34
2021/12/30 07:22:29;;;;;;;0.20;0.20;;;;;;;18.75;43.79;100955.06;5139688;27;20094;-37
2021/12/30 07:25:15;;;;;;;0.20;0.20;;;;;;;18.74;43.83;100957.00;5132926;27;20336;-34
2021/12/30 07:27:41;;;;;;;0.20;0.20;;;;;;;18.74;44.00;100957.00;5135547;27;20297;-34
2021/12/30 07:30:07;;;;;;;0.20;0.20;;;;;;;18.75;43.96;100971.63;5129638;27;20190;-34
2021/12/30 07:32:33;;;;;;;0.20;0.20;;;;;;;18.75;44.01;100982.66;5132817;27;20158;-34
2021/12/30 07:34:58;;;;;;;0.20;0.20;;;;;;;18.74;43.83;100981.81;5131000;27;20112;-34
2021/12/30 07:37:24;;;;;;;0.20;0.20;;;;;;;18.75;43.86;100993.69;5136497;27;20047;-37
2021/12/30 07:39:50;;;;;;;0.20;0.20;;;;;;;18.75;43.98;100996.44;5139180;27;20065;-34
2021/12/30 07:42:15;;;;;;;0.20;0.20;;;;;;;18.74;44.00;101001.13;5133118;27;20043;-35
2021/12/30 07:44:41;;;;;;;0.20;0.20;;;;;;;18.75;44.07;101001.97;5129545;28;20408;-36
2021/12/30 07:47:16;;;;;;;0.20;0.20;;;;;;;18.74;43.94;101014.94;5131445;27;20039;-34
2021/12/30 07:49:41;;;;;;;0.20;0.20;;;;;;;18.75;44.01;101013.81;5112882;28;20043;-36
2021/12/30 07:52:07;;;;;;;0.20;0.20;;;;;;;18.75;43.88;101024.03;5134196;27;20039;-34
2021/12/30 07:54:33;;;;;;;0.20;0.20;;;;;;;18.74;43.83;101028.72;5130839;27;20133;-34
2021/12/30 07:56:59;;;;;;;0.20;0.20;;;;;;;18.74;44.09;101034.25;5114765;27;20497;-34
2021/12/30 07:59:25;;;;;;;0.20;0.20;;;;;;;18.75;44.13;101027.63;5133572;27;20058;-34
2021/12/30 08:01:51;;;;;;;0.20;0.20;;;;;;;18.75;43.77;101040.59;5134370;27;20082;-36
2021/12/30 08:04:22;;;;;;;0.20;0.20;;;;;;;18.74;44.09;101039.75;5128025;28;20151;-34
2021/12/30 08:06:47;;;;;;;0.20;0.20;;;;;;;18.76;44.08;101047.75;5131457;27;20058;-37
2021/12/30 08:09:13;;;;;;;0.20;0.20;;;;;;;18.75;44.34;101044.16;5132944;27;20069;-34
2021/12/30 08:11:39;;;;;;;0.30;0.30;;;;;;;18.76;44.01;101047.75;5131176;27;20126;-34
2021/12/30 08:14:04;;;;;;;0.20;0.20;;;;;;;18.76;43.99;101053.28;5131693;27;20205;-37
2021/12/30 08:16:30;;;;;;;0.20;0.20;;;;;;;18.76;43.87;101064.31;5113205;28;20070;-34
2021/12/30 08:18:57;;;;;;;0.20;0.20;;;;;;;18.75;44.04;101057.97;5130276;27;20039;-34
2021/12/30 08:21:23;;;;;;;0.20;0.20;;;;;;;18.75;43.95;101065.41;5131720;27;20047;-34
2021/12/30 08:23:51;;;;;;;0.28;0.28;;;;;;;18.75;44.11;101071.75;5129951;27;20103;-34
2021/12/30 08:26:18;;;;;;;0.20;0.20;;;;;;;18.75;43.84;101068.19;5113401;28;20039;-35
2021/12/30 08:28:44;;;;;;;0.20;0.20;;;;;;;18.75;44.07;101070.94;5128791;27;20039;-33
2021/12/30 08:31:10;;;;;;;0.20;0.20;;;;;;;18.75;44.04;101076.44;5130958;27;20492;-35
2021/12/30 08:33:36;;;;;;;0.20;0.20;;;;;;;18.76;43.97;101078.09;5112282;27;20039;-34
2021/12/30 08:36:02;;;;;;;0.20;0.20;;;;;;;18.76;44.11;101075.34;5104298;27;20523;-34
2021/12/30 08:38:28;;;;;;;0.20;0.20;;;;;;;18.76;44.05;101073.41;5131216;27;20039;-34
2021/12/30 08:40:53;;;;;;;0.20;0.20;;;;;;;18.76;44.19;101086.38;5138171;27;20035;-34
2021/12/30 08:43:19;;;;;;;0.28;0.28;;;;;;;18.76;44.11;101084.44;5129580;27;20047;-34
2021/12/30 08:45:46;;;;;;;0.20;0.20;;;;;;;18.77;44.07;101101.81;5131822;27;20047;-34
2021/12/30 08:48:12;;;;;;;0.20;0.20;;;;;;;18.77;44.13;101099.06;5111011;28;20062;-38
2021/12/30 08:50:39;;;;;;;0.20;0.20;;;;;;;18.76;44.14;101097.41;5132521;27;20055;-35
2021/12/30 08:53:08;;;;;;;0.20;0.20;;;;;;;18.76;43.95;101095.47;5131744;27;20051;-34
2021/12/30 08:55:34;;;;;;;0.20;0.20;;;;;;;18.76;44.12;101095.47;5095463;28;20126;-35
2021/12/30 08:58:00;;;;;;;0.20;0.20;;;;;;;18.77;44.12;101090.78;5114738;27;20050;-34
2021/12/30 09:00:29;;;;;;;0.20;0.20;;;;;;;18.77;44.11;101099.06;5129989;27;20073;-34
2021/12/30 09:02:57;;;;;;;0.20;0.20;;;;;;;18.78;44.09;101093.28;5127935;27;20053;-34
2021/12/30 09:05:23;;;;;;;0.20;0.20;;;;;;;18.75;44.09;101080.03;5110083;28;20725;-34
2021/12/30 09:07:50;;;;;;;0.20;0.20;;;;;;;18.76;44.30;101091.91;5111089;27;20039;-34
2021/12/30 09:10:17;;;;;;;0.20;0.20;;;;;;;18.76;44.10;101084.44;5098359;27;20125;-36
2021/12/30 09:12:44;;;;;;;0.20;0.20;;;;;;;18.77;44.11;101090.78;5114152;28;20047;-34
2021/12/30 09:15:19;;;;;;;0.20;0.20;;;;;;;18.77;44.13;101079.75;5132941;27;20397;-34
2021/12/30 09:17:46;;;;;;;;;;;;;;;18.77;44.20;101093.53;5132597;27;20554;-34
2021/12/30 09:20:12;;;;;;;0.20;0.20;;;;;;;18.77;44.24;101096.31;5130711;27;19940;-34
2021/12/30 09:22:38;;;;;;;0.20;0.20;;;;;;;18.77;44.22;101090.78;5121938;28;20045;-34
2021/12/30 09:25:07;;;;;;;0.20;0.20;;;;;;;18.76;44.20;101102.94;5128661;27;20126;-34
2021/12/30 09:27:34;;;;;;;0.20;0.20;;;;;;;18.77;44.17;101104.59;5129766;27;20387;-34
2021/12/30 09:30:00;;;;;;;0.20;0.20;;;;;;;18.78;44.18;101114.50;5130197;27;20042;-35
2021/12/30 09:32:26;;;;;;;0.20;0.20;;;;;;;18.76;44.26;101114.78;5115024;27;20093;-34
2021/12/30 09:34:51;;;;;;;0.20;0.20;;;;;;;18.76;44.29;101117.56;5130321;27;20043;-36
2021/12/30 09:37:17;;;;;;;0.20;0.20;;;;;;;18.78;44.00;101120.03;5115900;28;20070;-34
2021/12/30 09:39:43;;;;;;;0.20;0.20;;;;;;;18.78;44.24;101128.31;5130159;27;20054;-34
2021/12/30 09:42:09;;;;;;;0.20;0.20;;;;;;;18.77;44.13;101129.41;5131183;27;20550;-36
2021/12/30 09:44:34;;;;;;;0.20;0.20;;;;;;;18.78;44.11;101129.16;5112111;28;20473;-34
2021/12/30 09:47:00;;;;;;;0.22;0.22;;;;;;;18.78;44.15;101133.81;5127861;27;20057;-34
2021/12/30 09:49:27;;;;;;;0.20;0.20;;;;;;;18.78;44.15;101131.06;5133861;27;20047;-34
2021/12/30 09:51:52;;;;;;;0.20;0.20;;;;;;;18.77;44.12;101130.25;5133078;27;20412;-34
2021/12/30 09:54:19;;;;;;;0.20;0.20;;;;;;;18.78;44.05;101139.34;5130587;27;20044;-34
2021/12/30 09:56:45;;;;;;;0.25;0.25;;;;;;;18.78;44.18;101136.59;5112913;27;20043;-34
2021/12/30 09:59:11;;;;;;;0.20;0.20;;;;;;;18.79;43.99;101133.56;5111843;28;20424;-34
2021/12/30 10:01:39;;;;;;;0.20;0.20;;;;;;;18.78;44.20;101131.06;5111780;27;20054;-34
2021/12/30 10:04:06;;;;;;;0.20;0.20;;;;;;;18.77;44.04;101129.41;5130826;27;20515;-35
2021/12/30 10:06:32;;;;;;;0.20;0.20;;;;;;;18.77;44.12;101124.72;5129128;27;20491;-34
2021/12/30 10:09:02;;;;;;;0.20;0.20;;;;;;;18.78;44.15;101134.69;5111023;28;20526;-33
2021/12/30 10:11:27;;;;;;;0.20;0.20;;;;;;;18.78;44.21;101137.44;5131358;27;20035;-35
2021/12/30 10:13:56;;;;;;;0.20;0.20;;;;;;;18.78;44.13;101139.34;5132948;27;20054;-35
2021/12/30 10:16:24;;;;;;;0.22;0.22;;;;;;;18.77;44.09;101138.50;5130391;27;20047;-34
2021/12/30 10:18:53;;;;;;;0.20;0.20;;;;;;;18.77;44.22;101138.50;5112164;27;20089;-34
2021/12/30 10:21:39;;;;;;;0.20;0.20;;;;;;;18.78;44.07;101142.09;5129025;27;20103;-34
2021/12/30 10:24:07;;;;;;;0.20;0.20;;;;;;;18.79;44.23;101152.06;5111686;27;20065;-36
2021/12/30 10:26:50;;;;;;;0.20;0.20;;;;;;;18.78;44.32;101154.00;5114498;28;20045;-35
2021/12/30 10:29:17;;;;;;;0.20;0.20;;;;;;;18.78;44.37;101156.75;5113602;27;21195;-34
2021/12/30 10:31:43;;;;;;;0.20;0.20;;;;;;;18.77;44.28;101155.06;5099926;27;20087;-34
2021/12/30 10:34:11;;;;;;;0.20;0.20;;;;;;;18.79;44.07;101171.38;5131474;27;20034;-34
2021/12/30 10:36:41;;;;;;;0.20;0.20;;;;;;;18.78;44.10;101165.03;5095553;27;20043;-34
2021/12/30 10:39:28;;;;;;;0.20;0.20;;;;;;;18.79;44.26;101163.91;5129330;27;20065;-34
2021/12/30 10:45:02;;;;;;;0.20;0.20;;;;;;;18.79;44.42;101155.66;5158346;27;20672;-34
2021/12/30 10:47:30;;;;;;;0.20;0.20;;;;;;;18.78;44.32;101167.78;5153394;27;20142;-34
2021/12/30 10:50:01;;;;;;;0.20;0.20;;;;;;;18.78;44.36;101159.50;5163845;27;20035;-34
2021/12/30 10:52:27;;;;;;;0.20;0.20;;;;;;;18.79;44.29;101169.44;5143223;27;20481;-33
2021/12/30 10:54:53;;;;;;;0.20;0.20;;;;;;;18.79;44.12;101166.69;5151231;27;20046;-34
2021/12/30 10:57:19;;;;;;;0.20;0.20;;;;;;;18.77;44.22;101168.88;5131973;27;20500;-34
2021/12/30 10:59:49;;;;;;;0.20;0.20;;;;;;;18.77;44.39;101160.59;5142010;27;20051;-34
2021/12/30 11:02:20;;;;;;;0.22;0.22;;;;;;;18.79;44.26;101160.34;5120621;27;20035;-34
2021/12/30 11:04:53;;;;;;;0.20;0.20;;;;;;;18.78;44.31;101158.66;5120358;27;20038;-33
2021/12/30 11:07:22;;;;;;;0.20;0.20;;;;;;;18.80;44.23;101156.47;5118800;27;20116;-33
2021/12/30 11:09:50;;;;;;;0.20;0.20;;;;;;;18.79;44.15;101165.84;5146918;27;20047;-35
2021/12/30 11:12:22;;;;;;;0.30;0.30;;;;;;;18.80;44.36;101167.50;5158542;27;20047;-34
2021/12/30 11:14:48;;;;;;;0.20;0.20;;;;;;;18.79;44.20;101152.88;5157546;27;20047;-34
2021/12/30 11:17:21;;;;;;;0.20;0.20;;;;;;;18.80;44.35;101164.75;5141968;27;20383;-37
2021/12/30 11:19:53;;;;;;;0.20;0.20;;;;;;;18.79;44.26;101143.78;5127919;27;20412;-35
2021/12/30 11:22:22;;;;;;;0.20;0.20;;;;;;;18.79;44.46;101154.81;5152115;27;20049;-35
2021/12/30 11:24:48;;;;;;;0.30;0.30;;;;;;;18.79;44.42;101161.16;5159261;27;20042;-34
2021/12/30 11:27:16;;;;;;;0.20;0.20;;;;;;;18.80;44.33;101153.72;5158179;27;20050;-34